Team logos
Guidelines for entries Team Leaderboard Add or Update a Person FAQ
May 2015 - Go Bananas for two minutes
This challenge was chosen by Banana Boat

Row 2 minutes unrestricted and record your distance.

There are no stroke rate restrictions on this challenge.


The June challenge will be chosen by FIRT


See the ISS forum thread for details.

Most Recent EntriesAdd/Update an Entry
DateNameCatTeamResult
2015-05-27Jo WaltersFLWTFitness Matters 508
2015-05-27Sam BlytheMHWTFitness Matters 670
2015-05-27Nigel FarmerMHWTForum Flyers 628
2015-05-27Laura Natalie PoulsonFHWTSub 7 560
2015-05-27Heather PowellFLWTSub 7 467
Bold = new time; italic = updated time
Name:
Password:
Entry: metres
 
Current Leaderboard
Names in blue italics have added or updated their times within the past 24 hours.
#NameCatTeamResultPacePower
11 Ross LoveMPaddy Power I 749   1:20.1  680.9 
2Dave MarshallMMAD I 724   1:22.9  614.9 
3Dirk MöllerMForum Flyers I 716   1:23.8  594.8 
4Morgan GuthnerMPaddy Power I 716   1:23.8  594.8 
5macrothMForum Flyers I 714   1:24.0  589.8 
6Shawn BakerMForum Flyers I 712   1:24.3  584.9 
7Matt VanstoneMSub 7 I 709   1:24.6  577.5 
8PP Lee BawnMPaddy Power I 709   1:24.6  577.5 
9AAPaul BuchananMPaddy Power II 707   1:24.9  572.6 
10hjsMForum Flyers II 701   1:25.6  558.2 
11Brett SteelsMSub 7 I 699   1:25.8  553.4 
12JHilstonMForum Flyers II 698   1:26.0  551.0 
13Dan StanleyMSub 7 I 695   1:26.3  544.0 
14Julian WarrickMSub 7 II 692   1:26.7  536.9 
15Ollie CartwrightMSub 7 II 688   1:27.2  527.7 
16Al TaylorMTeam Oarsome I 687   1:27.3  525.4 
17R2C2MFIRT I 687   1:27.3  525.4 
18Andy HammondmSub 7 I 686   1:27.5  523.1 
19James HildebrandMPenobscot River IRC I 682   1:28.0  514.0 
20James HydeMRowPro Rowers I 680   1:28.2  509.5 
21MBOY-AIPMFIRT I 680   1:28.2  509.5 
22Todd CarpenterMForum Flyers II 680   1:28.2  509.5 
23Ian WildeMSub 7 II 679   1:28.4  507.3 
24Pete MarstonMMAD I 679   1:28.4  507.3 
25Scott PollockMSub 7 III 678   1:28.5  505.0 
26haaicoMFree Spirits I 678   1:28.5  505.0 
27Stewart MossMSub 7 III 677   1:28.6  502.8 
28Howard BrammerMFitness Matters I 677   1:28.6  502.8 
29David ByrnesmSub 7 II 676   1:28.8  500.6 
30Dafydd jamesMFitness Matters I 675   1:28.9  498.3 
31Casey ClarkeMSub 7 III 675   1:28.9  498.3 
32thornmasterMFree Spirits I 674   1:29.0  496.1 
33Steve SidawayMSub 7 IV 673   1:29.2  493.9 
34Johnny KolsterMSub 7 IV 673   1:29.2  493.9 
35Glynn PowellMSub 7 IV 672   1:29.3  491.7 
36Mikkel Ellesøe HansenMFree Spirits I 671   1:29.4  489.5 
37Dave ChmilowskyjMTeam Oarsome I 670   1:29.6  487.3 
38Sam BlytheMFitness Matters I 670   1:29.6  487.3 
39danfennellMFree Spirits II 669   1:29.7  485.2 
40MaximusMPaddy Power II 669   1:29.7  485.2 
41Alastair PeakemSub 7 III 668   1:29.8  483.0 
42Mark ChristieMForum Flyers III 667   1:30.0  480.8 
43Ralf AchenbachMC2TweetCrew I 666   1:30.1  478.7 
44David LIOTMFIRT I 664   1:30.4  474.4 
45Julien ADANMFIRT II 664   1:30.4  474.4 
46Frank NoorlanderMForum Flyers III 663   1:30.5  472.2 
47Jonty LeeseMSub 7 V 663   1:30.5  472.2 
48Jon GoodallMMAD I 662   1:30.6  470.1 
49MarkM FFMForum Flyers III 662   1:30.6  470.1 
50MimimokeMGee Crew I 662   1:30.6  470.1 
51PongiMEmpty the Tanks I 661   1:30.8  468.0 
52Mark BowerMEmpty the Tanks I 661   1:30.8  468.0 
53Anders NielsenMFitness Matters II 660   1:30.9  465.8 
54Mike Channin (Tribesports)MTribesports I 659   1:31.0  463.7 
55Robert JonesMSub 7 V 658   1:31.2  461.6 
56James CampbellMSub 7 V 657   1:31.3  459.5 
57LiefcatMFree Spirits II 657   1:31.3  459.5 
58LuismFIRT I 656   1:31.5  457.4 
59Danny WatsonmSub 7 IV 655   1:31.6  455.3 
60Gaël SAGONMFIRT II 655   1:31.6  455.3 
61Richard CheesemanMSub 7 VI 655   1:31.6  455.3 
62Mark LysonsMSub 7 VI 654   1:31.7  453.3 
63Martin KjeldsenMPaddy Power II 654   1:31.7  453.3 
64BrenanMTribesports I 653   1:31.9  451.2 
65Ben WhitakerMSub 7 VI 652   1:32.0  449.1 
66Sebastien PrieuxmFIRT II 652   1:32.0  449.1 
67Robert MayesMDLC Gidea Park I 652   1:32.0  449.1 
68Paul_TimmonsmPaddy Power I 650   1:32.3  445.0 
69Vivien MarmelatMFIRT II 650   1:32.3  445.0 
70Collautti andreMFIRT III 650   1:32.3  445.0 
71LindsayhMForum Flyers IV 649   1:32.4  442.9 
72Paul VictoryMFree Spirits II 648   1:32.6  440.9 
73Johan DenekampMSub 7 VII 648   1:32.6  440.9 
74W de JongMForum Flyers IV 648   1:32.6  440.9 
75John LuggMFitness Matters II 648   1:32.6  440.9 
76Rowland HillsMSub 7 VII 648   1:32.6  440.9 
77Marc CharmanmSub 7 V 648   1:32.6  440.9 
78Pierre LGMMFIRT III 647   1:32.7  438.9 
79Stuart StronachMSub 7 VII 647   1:32.7  438.9 
80Kay BieriMC2TweetCrew I 647   1:32.7  438.9 
81Adam FredMFIRT III 647   1:32.7  438.9 
82AARobert diffleymPaddy Power II 646   1:32.9  436.8 
83Bert DolMSub 7 VIII 646   1:32.9  436.8 
84JEFF JANEAUMFIRT IV 646   1:32.9  436.8 
85Ben MMTribesports I 645   1:33.0  434.8 
86Colin VidasMPenobscot River IRC I 645   1:33.0  434.8 
87Simon NewtonMGee Crew I 645   1:33.0  434.8 
88John SteventonmFree Spirits I 643   1:33.3  430.8 
89KCHAB-AIPMFIRT IV 643   1:33.3  430.8 
90Matty SpriggsMThe Banana Boat I 642   1:33.5  428.8 
91John HaneyMPenobscot River IRC I 642   1:33.5  428.8 
92david FROCmFIRT III 642   1:33.5  428.8 
93Nat BreeceMPenobscot River IRC II 641   1:33.6  426.8 
94TurbomSub 7 VI 640   1:33.8  424.8 
95Josh BennettMSub 7 VIII 640   1:33.8  424.8 
96Frank NowakowskiMRowPro Rowers I 639   1:33.9  422.8 
97GaleereMEmpty the Tanks I 639   1:33.9  422.8 
98John EalesmSub 7 VII 639   1:33.9  422.8 
99philou71MFIRT IV 639   1:33.9  422.8 
100Conny J.mRote 87 RK I 638   1:34.0  420.8 
101Colin O'NeillmPaddy Power III 638   1:34.0  420.8 
102Phoenician FrankiMPhoenician Rowers I 637   1:34.2  418.8 
103NT-AIPMFIRT V 637   1:34.2  418.8 
104TimDAV8MSub 7 VIII 636   1:34.3  416.9 
105Craig HudsonMIndependent I 636   1:34.3  416.9 
106MichaelBenhamMPaddy Power III 636   1:34.3  416.9 
107Steve OckerbyMForum Flyers IV 636   1:34.3  416.9 
108Nick VerrowMPenobscot River IRC II 636   1:34.3  416.9 
109Rob TarnMSub 7 IX 634   1:34.6  412.9 
110Odd Ivar LindlandMForum Flyers V 634   1:34.6  412.9 
111Pierrick MoscatelloMFIRT V 634   1:34.6  412.9 
112Felton HumbleMFree Spirits III 633   1:34.8  411.0 
113Florian CousinMFIRT V 633   1:34.8  411.0 
114Johan EklundMRote 87 RK I 632   1:34.9  409.0 
115gregsmith01748MFree Spirits III 632   1:34.9  409.0 
116Charles AndersonMC2TweetCrew I 631   1:35.1  407.1 
117Aurelien USVMFIRT VI 631   1:35.1  407.1 
118Anthony DohertyMSub 7 IX 630   1:35.2  405.2 
119Little ChrismThe Banana Boat I 629   1:35.4  403.2 
120patrick TERGEMINAMFIRT VI 629   1:35.4  403.2 
121Steven RichieMSub 7 IX 629   1:35.4  403.2 
122Steve JenningsMDLC Gidea Park I 628   1:35.5  401.3 
123Phoenician TitiMPhoenician Rowers I 628   1:35.5  401.3 
124Maurice O'KaneMPaddy Power III 628   1:35.5  401.3 
125Nigel FarmerMForum Flyers V 628   1:35.5  401.3 
126Shane DenverMSub 7 X 627   1:35.7  399.4 
127Amadee PelgrimMRowPro Rowers I 625   1:36.0  395.6 
1282444 Rob SmiffMPenobscot River IRC II 624   1:36.2  393.7 
129Andrew HewittMEmpty the Tanks II 624   1:36.2  393.7 
130Nick MallorymForum Flyers I 624   1:36.2  393.7 
131PICHENOT SylvainMFIRT VI 624   1:36.2  393.7 
132George WhiteMFitness Matters II 623   1:36.3  391.8 
133Richard MooreheadMPaddy Power III 623   1:36.3  391.8 
134Deniz MahmutMDLC Gidea Park I 622   1:36.5  389.9 
135Richard SteventonMSub 7 X 622   1:36.5  389.9 
136SmithyMTribesports II 621   1:36.6  388.1 
137Ant StansbieMSub 7 X 621   1:36.6  388.1 
138Graham HolmesMDLC Gidea Park II 621   1:36.6  388.1 
139Mark Collins S7MSub 7 XI 621   1:36.6  388.1 
140Rod ChinnMSub 7 XI 620   1:36.8  386.2 
141Steve SmithMFree Spirits III 619   1:36.9  384.3 
142bakudaina1MSub 7 XI 618   1:37.1  382.5 
143RougeMGee Crew I 618   1:37.1  382.5 
144alan wisniewskiMFree Spirits IV 618   1:37.1  382.5 
145Charles BradleyMSub 7 XII 617   1:37.2  380.6 
146Bailey HemsleyMThe Banana Boat I 617   1:37.2  380.6 
147Ben LangstraatMFree Spirits IV 617   1:37.2  380.6 
148Glen RhookmForum Flyers II 616   1:37.4  378.8 
149SanderJRoosendaalmFree Spirits II 616   1:37.4  378.8 
150Liam WelbeckMSub 7 XII 615   1:37.6  376.9 
151schueyMSub 7 XII 615   1:37.6  376.9 
152Peter VigneaultMPenobscot River IRC III 615   1:37.6  376.9 
153Joseph SmyntekMEmpty the Tanks II 614   1:37.7  375.1 
154Jean-Pierre GORINmFIRT IV 614   1:37.7  375.1 
155Dan AppsMFree Spirits IV 614   1:37.7  375.1 
156Herman de BoermC2TweetCrew I 613   1:37.9  373.2 
157bojammSub 7 VIII 613   1:37.9  373.2 
158laurent GALLOMFIRT VII 612   1:38.0  371.4 
159Markus DornMC2TweetCrew II 611   1:38.2  369.6 
160Alan LackMDLC Gidea Park II 610   1:38.4  367.8 
161Steve BurkemForum Flyers III 610   1:38.4  367.8 
162Will HaskellmForum Flyers IV 610   1:38.4  367.8 
163John McCarthyMSub 7 XIII 610   1:38.4  367.8 
164LoopingmFIRT V 610   1:38.4  367.8 
165Phoenician DavidMPhoenician Rowers I 609   1:38.5  366.0 
166GeorgeBinghamMSub 7 XIII 609   1:38.5  366.0 
167D WiklanderMRote 87 RK I 609   1:38.5  366.0 
168herve pruneaumFIRT VI 609   1:38.5  366.0 
169Bouke DielemanMEmpty the Tanks II 609   1:38.5  366.0 
170Amanda GrapFPaddy Power I 609   1:38.5  366.0 
171Philip SadlerMDLC Gidea Park II 608   1:38.7  364.2 
172Sebastien ChaumioleMFIRT VII 607   1:38.8  362.4 
173Mark DickinsonMFitness Matters III 607   1:38.8  362.4 
174Dirk_VeugerMC2TweetCrew II 607   1:38.8  362.4 
175stephane blanquartMFIRT VII 607   1:38.8  362.4 
176Jerome CoudroyMFIRT VIII 607   1:38.8  362.4 
177Mike KM BeardmFitness Matters I 607   1:38.8  362.4 
178MerciermFIRT VII 606   1:39.0  360.6 
179John PriceMDLC Gidea Park III 606   1:39.0  360.6 
180Chris WhaleMForum Flyers V 606   1:39.0  360.6 
181Richard YMFree Spirits V 605   1:39.2  358.8 
182Andy OsbornMSub 7 XIII 605   1:39.2  358.8 
183Doug RollandMRowPro Rowers II 604   1:39.3  357.0 
184James HicksMIndependent I 604   1:39.3  357.0 
185Jos van der lindenMC2TweetCrew II 603   1:39.5  355.3 
186Dave BarberMSub 7 XIV 603   1:39.5  355.3 
187Heather K KentonfPaddy Power II 603   1:39.5  355.3 
188Troy MMPaddy Power IV 602   1:39.7  353.5 
189Rachel HarrisFMAD I 602   1:39.7  353.5 
190Stuart PowermDLC Gidea Park I 602   1:39.7  353.5 
191Jeanditpanel.sebastienMFIRT VIII 602   1:39.7  353.5 
192Pier NijenhuismRowPro Rowers I 602   1:39.7  353.5 
193Daniel GulsherMThe Banana Boat I 601   1:39.8  351.8 
194TaraFFIRT I 600   1:40.0  350.0 
195Dave MikoskaMSub 7 XIV 599   1:40.2  348.3 
196Gaetan LysMFIRT VIII 599   1:40.2  348.3 
197Volkert WagenarMSub 7 XIV 599   1:40.2  348.3 
198FREELANCE MN ROCCO GIORGIOMROWING CLUB MANTOVA I 599   1:40.2  348.3 
199FunkyrowerMThe Banana Boat II 598   1:40.3  346.5 
200henrik_denmarkMSub 7 XV 598   1:40.3  346.5 
201Eric JonesMSub 7 XV 597   1:40.5  344.8 
202Victoria Jane TaylorFSub 7 I 597   1:40.5  344.8 
203Alex JensonMThe Banana Boat II 596   1:40.7  343.0 
204andy warnerMSub 7 XV 596   1:40.7  343.0 
205Lewis WidowerymThe Banana Boat II 596   1:40.7  343.0 
206Kristi StoddardFSub 7 II 596   1:40.7  343.0 
207Jillian IngersonFPenobscot River IRC I 595   1:40.8  341.3 
208patrice CORNUTMFIRT IX 595   1:40.8  341.3 
209Peter FFMForum Flyers VI 594   1:41.0  339.6 
210Remy CoubelMFIRT IX 594   1:41.0  339.6 
211Roger Bjarm ForneboMSub 7 XVI 594   1:41.0  339.6 
212Paul Corrigan S7MSub 7 XVI 594   1:41.0  339.6 
213Graham LochrieMSub 7 XVI 594   1:41.0  339.6 
214Bill WakeleymRowPro Rowers II 594   1:41.0  339.6 
215Dave SpeedMTeam Oarsome I 594   1:41.0  339.6 
216vincent AdemaMFIRT IX 593   1:41.2  337.9 
217James ThorntonMSub 7 XVII 593   1:41.2  337.9 
218Peter WeißMFree Spirits V 593   1:41.2  337.9 
219Carlos RodriguezmSub 7 IX 592   1:41.4  336.2 
220Cedi Frederick S7MSub 7 XVII 591   1:41.5  334.5 
221Andy GrimmettMSub 7 XVII 590   1:41.7  332.8 
222Ruud JackelMRowPro Rowers II 590   1:41.7  332.8 
223Caitlin elliottFPenobscot River IRC II 590   1:41.7  332.8 
224RGelissenmFree Spirits III 588   1:42.0  329.4 
225Richie FallowsMDLC Gidea Park III 587   1:42.2  327.7 
226William Gooner HawkinsMC2TweetCrew III 587   1:42.2  327.7 
227Matt GibsonMSub 7 XVIII 586   1:42.4  326.1 
228David PlumbmFree Spirits IV 586   1:42.4  326.1 
229Johan HoekemC2TweetCrew II 586   1:42.4  326.1 
230P McNeilMDLC Gidea Park III 586   1:42.4  326.1 
231George KingMTeam Oarsome II 586   1:42.4  326.1 
232Damian BakerMTribesports II 585   1:42.6  324.4 
233Chase GuerrettemPenobscot River IRC I 584   1:42.7  322.7 
234Simon LakeMSub 7 XVIII 583   1:42.9  321.1 
235Victoria StarrFTribesports I 582   1:43.1  319.4 
236Alan Strang (TS)mTribesports I 582   1:43.1  319.4 
237Steve PricemMAD I 582   1:43.1  319.4 
238Matt NichollsBmThe Banana Boat II 582   1:43.1  319.4 
239FREELANCE MN BUOLI ROMANOMROWING CLUB MANTOVA I 580   1:43.4  316.2 
240Bill_SchmidtmEmpty the Tanks I 580   1:43.4  316.2 
241Nigel BrocktonmSub 7 X 579   1:43.6  314.5 
242Josh GibbsMThe Banana Boat III 579   1:43.6  314.5 
243FREELANCE MN UVA EMANUELEMROWING CLUB MANTOVA I 579   1:43.6  314.5 
244cycloidMSub 7 XVIII 579   1:43.6  314.5 
245Tracy WatkinsFSub 7 III 578   1:43.8  312.9 
246Dave BrinsmeadmDLC Gidea Park II 578   1:43.8  312.9 
247Jean-Marc HurniMAge Without Limits I 577   1:44.0  311.3 
248Hannah HawkinsFTeam Oarsome I 577   1:44.0  311.3 
249Steve BerridgemSub 7 XI 576   1:44.2  309.7 
250Terry FFmForum Flyers V 576   1:44.2  309.7 
251Jon P TaylormFree Spirits V 576   1:44.2  309.7 
252Borut HafnermC2TweetCrew III 575   1:44.3  308.0 
253Rozlyn PetersenFPenobscot River IRC III 575   1:44.3  308.0 
254Jay OBMPaddy Power IV 575   1:44.3  308.0 
255KirbytmFree Spirits V 575   1:44.3  308.0 
256Sarita Kristina HansenfSub 7 IV 574   1:44.5  306.4 
257Phil LambMFree Spirits VI 574   1:44.5  306.4 
258thomas jean philippemFIRT VIII 573   1:44.7  304.8 
259OranjmIndependent I 573   1:44.7  304.8 
260Phil Nolan FSMFree Spirits VI 571   1:45.1  301.7 
261Richard CamposMSub 7 XIX 570   1:45.3  300.1 
262Malwina TrittFC2TweetCrew I 570   1:45.3  300.1 
263NC StanleyMAge Without Limits I 569   1:45.4  298.5 
264Lawrence DelmSub 7 XII 568   1:45.6  296.9 
265Phoenician SamymPhoenician Rowers I 567   1:45.8  295.4 
266Kerri ChristensenFSub 7 V 567   1:45.8  295.4 
267Jaden FFmForum Flyers VI 567   1:45.8  295.4 
268Jenna PaullfGee Crew I 567   1:45.8  295.4 
269David SAGONmFIRT IX 566   1:46.0  293.8 
270Natalie TrebilcockFGee Crew I 566   1:46.0  293.8 
271Rob CMFree Spirits VI 566   1:46.0  293.8 
272Mike BodeMEmpty the Tanks III 565   1:46.2  292.3 
273Jean michel CoupeMFIRT X 564   1:46.4  290.7 
274Lawrence DurkinmThe Banana Boat III 563   1:46.6  289.2 
275Dave Moores (FF)MForum Flyers VI 562   1:46.8  287.6 
276Daniel HamesmThe Banana Boat III 562   1:46.8  287.6 
277Godfrey TarlingmSub 7 XIII 561   1:47.0  286.1 
278Mike BrownjohnmDLC Gidea Park III 560   1:47.1  284.6 
279Joe A KeatingmPaddy Power IV 560   1:47.1  284.6 
280Houssin jean-michelmFIRT X 560   1:47.1  284.6 
281Laura Natalie PoulsonFSub 7 VI 560   1:47.1  284.6 
282Frank TappMThe Banana Boat III 559   1:47.3  283.0 
283Jet Ski LadyFSub 7 VII 559   1:47.3  283.0 
284Maryanne MaguireFForum Flyers I 558   1:47.5  281.5 
285JessikahunyfPaddy Power III 558   1:47.5  281.5 
286Peter SheeanmForum Flyers VI 557   1:47.7  280.0 
287Kenneth MurdochMEmpty the Tanks III 557   1:47.7  280.0 
288James FFMForum Flyers VII 557   1:47.7  280.0 
289Lehuger christianmFIRT X 557   1:47.7  280.0 
290Jerry GmPaddy Power IV 556   1:47.9  278.5 
291Alex KartonmThe Banana Boat IV 556   1:47.9  278.5 
292John GunnMThe Banana Boat IV 555   1:48.1  277.0 
293Peter TullettmFree Spirits VI 555   1:48.1  277.0 
294Lucy OBfPaddy Power IV 554   1:48.3  275.5 
295TinaosullivanfPaddy Power V 554   1:48.3  275.5 
296Graham ToothMFitness Matters III 554   1:48.3  275.5 
297Daniel SundqvistmEmpty the Tanks II 553   1:48.5  274.0 
298Tom HaigMGee Crew II 553   1:48.5  274.0 
299Richard CourtneymDLC Gidea Park IV 552   1:48.7  272.5 
300Jon PalinmFree Spirits VII 550   1:49.1  269.6 
301Mike DelMSub 7 XIX 549   1:49.3  268.1 
302FREELANCE MN NASI PIERGIORGIOmROWING CLUB MANTOVA I 549   1:49.3  268.1 
303Stefan ReschkeMRowPro Rowers II 549   1:49.3  268.1 
304Roger CruttendenMGee Crew II 549   1:49.3  268.1 
305Michal WuicimskimThe Banana Boat IV 549   1:49.3  268.1 
306Robert EssexmPaddy Power V 549   1:49.3  268.1 
307Rick BaykomForum Flyers VII 548   1:49.5  266.7 
308Anna PhillipsFPenobscot River IRC III 547   1:49.7  265.2 
309Christina Hicks2FGee Crew II 547   1:49.7  265.2 
310Dave BarnbrookMThe Banana Boat IV 547   1:49.7  265.2 
311Richard HallmSub 7 XIV 546   1:49.9  263.7 
312Rob DrurymEmpty the Tanks III 545   1:50.1  262.3 
313Paul Bryson (TS)MTribesports II 545   1:50.1  262.3 
314Laura FairbairnFFree Spirits I 545   1:50.1  262.3 
315Villeneuve reneMFIRT X 545   1:50.1  262.3 
316Claire MilneFDLC Gidea Park I 544   1:50.3  260.9 
317Ronan LE LIGEOURMFIRT XI 544   1:50.3  260.9 
318Kevin PappinMGee Crew II 544   1:50.3  260.9 
319Cody ButtonmThe Banana Boat V 544   1:50.3  260.9 
320Lestrade Th.mFIRT XI 543   1:50.5  259.4 
321Emma LemoineFFIRT II 543   1:50.5  259.4 
322Kevin FinchmSub 7 XV 543   1:50.5  259.4 
323Bluebell31FSub 7 VIII 542   1:50.7  258.0 
324Sam KershawmThe Banana Boat V 542   1:50.7  258.0 
325Richard LindnerMFree Spirits VII 541   1:50.9  256.6 
326Jonathan VictoryMFree Spirits VII 541   1:50.9  256.6 
327Tommy GeeMGee Crew III 541   1:50.9  256.6 
328Scott DenneymThe Banana Boat V 540   1:51.1  255.2 
329Emily BatchelderFPenobscot River IRC III 539   1:51.3  253.7 
330Jono BakermSub 7 XVI 538   1:51.5  252.3 
331Alan DixonMThe Banana Boat V 537   1:51.7  250.9 
332Jack GilmoreMForum Flyers VII 537   1:51.7  250.9 
333Paul DowsettMPenobscot River IRC IV 537   1:51.7  250.9 
334Carol WoodwardfSub 7 IX 534   1:52.4  246.7 
335Craig RevellMThe Banana Boat VI 534   1:52.4  246.7 
336Mark KaehlerMEmpty the Tanks III 534   1:52.4  246.7 
337Jonathan Turns ETTMEmpty the Tanks IV 534   1:52.4  246.7 
338Claire HaynesFFree Spirits II 533   1:52.6  245.4 
339FREELANCE MN GRASSI MARCELLOMROWING CLUB MANTOVA II 533   1:52.6  245.4 
340Rhona Ware /O brienFPaddy Power V 532   1:52.8  244.0 
341Gabrielle SchrageFPenobscot River IRC IV 531   1:53.0  242.6 
342Andrew HillmThe Banana Boat VI 530   1:53.2  241.2 
343Julian SpriggsMThe Banana Boat VI 529   1:53.4  239.9 
344France BergeronFRowPro Rowers I 528   1:53.6  238.5 
345Stefan RMTribesports III 527   1:53.9  237.2 
346Andy TrippMTribesports III 526   1:54.1  235.8 
347chloe41 USVfFIRT III 526   1:54.1  235.8 
348Dee AmonfRowPro Rowers II 525   1:54.3  234.5 
349Jack MillsmThe Banana Boat VI 525   1:54.3  234.5 
350Laurence LOPEZFFIRT IV 525   1:54.3  234.5 
351Martyn SmithMC2TweetCrew III 525   1:54.3  234.5 
352Loretta AtteyfTribesports II 523   1:54.7  231.8 
353Julie PaillinfSub 7 X 522   1:54.9  230.5 
354Karyn McNamaraFEmpty the Tanks I 521   1:55.2  229.2 
355Chloe SharpefSub 7 XI 521   1:55.2  229.2 
356Arlene Wade (TO)fTeam Oarsome I 521   1:55.2  229.2 
357Ellie MaresfGee Crew II 521   1:55.2  229.2 
358Claire TrembleyfPenobscot River IRC II 519   1:55.6  226.5 
359Michelle ToyFC2TweetCrew II 518   1:55.8  225.2 
360Defondaumiere.stephanieFFIRT V 517   1:56.1  223.9 
361Dougie LawsonMSub 7 XIX 516   1:56.3  222.6 
362Kay HughesFTeam Oarsome II 516   1:56.3  222.6 
363Joanna DlugoszewskafThe Banana Boat I 515   1:56.5  221.3 
364brendanh FFMForum Flyers VII 515   1:56.5  221.3 
365Chole HutsonfThe Banana Boat II 514   1:56.7  220.0 
366Mark DicksonMIRON OARSMAN I 514   1:56.7  220.0 
367Jackie HicksFIndependent I 514   1:56.7  220.0 
368Sala.thomasMFIRT XI 513   1:57.0  218.8 
369Harry GoodwinmThe Banana Boat VII 512   1:57.2  217.5 
370Jim MoldenhauerMEmpty the Tanks IV 512   1:57.2  217.5 
371Matthias RauschMEmpty the Tanks IV 510   1:57.6  214.9 
372Bryan TapsellmSub 7 XVII 509   1:57.9  213.7 
373FREELANCE MN SPEGGIORIN ORNELLAfROWING CLUB MANTOVA I 509   1:57.9  213.7 
374Lindsay HewittFDLC Gidea Park II 509   1:57.9  213.7 
375Carol McilvaneFPaddy Power V 508   1:58.1  212.4 
376Jo WaltersfFitness Matters I 508   1:58.1  212.4 
377Marcin MaliszewskimThe Banana Boat VII 506   1:58.6  209.9 
378Nadine CoudroyfFIRT VI 506   1:58.6  209.9 
379Elise Chaumiole IIFFIRT VII 505   1:58.8  208.7 
380Keir ClasperMThe Banana Boat VII 505   1:58.8  208.7 
381Michelle HoughtonFFree Spirits III 504   1:59.0  207.4 
382clareburrellfFree Spirits IV 503   1:59.3  206.2 
383Sue MarksFPaddy Power V 503   1:59.3  206.2 
384Georgina PriceFForum Flyers II 502   1:59.5  205.0 
3852Sophie CookefFitness Matters II 502   1:59.5  205.0 
386Susan YoungFSub 7 XII 501   1:59.8  203.8 
387Deborah AbbottFSub 7 XIII 500   2:00.0  202.5 
388Blanchard.michelMFIRT XI 500   2:00.0  202.5 
389Steve ColesMEmpty the Tanks V 499   2:00.2  201.3 
390Josh WhiteleymThe Banana Boat VII 499   2:00.2  201.3 
391Roger BurrellmFree Spirits VII 499   2:00.2  201.3 
392Lizzie MfTribesports II 497   2:00.7  198.9 
393Melissa BfThe Banana Boat III 497   2:00.7  198.9 
394Kathy SchofieldFForum Flyers III 496   2:01.0  197.7 
395Amanda GurleyFSub 7 XIV 495   2:01.2  196.5 
396Kendra LookfPenobscot River IRC III 495   2:01.2  196.5 
397diana kornbrotFSub 7 XV 495   2:01.2  196.5 
398Clive HoddsMThe Banana Boat VIII 492   2:02.0  193.0 
399Tom SellarsmThe Banana Boat VIII 489   2:02.7  189.5 
400DiggymEmpty the Tanks IV 486   2:03.5  186.0 
401Krist ChaplinFThe Banana Boat IV 486   2:03.5  186.0 
402Annette WammenfRowPro Rowers III 485   2:03.7  184.9 
403lizh FFFForum Flyers IV 485   2:03.7  184.9 
404Chet CressmanMSub 7 XX 482   2:04.5  181.4 
405PeggyHfFree Spirits V 482   2:04.5  181.4 
406Ellen Greenaway-BowenFSub 7 XVI 482   2:04.5  181.4 
407Sarah DowningmThe Banana Boat VIII 482   2:04.5  181.4 
408Adrian HallMThe Banana Boat VIII 480   2:05.0  179.2 
409Liz WestFSub 7 XVII 477   2:05.8  175.9 
410Dannika WellsfThe Banana Boat V 477   2:05.8  175.9 
411DERYAFFIRT VIII 476   2:06.1  174.8 
412Jego.nadineFFIRT IX 475   2:06.3  173.7 
413Jas FFfForum Flyers V 474   2:06.6  172.6 
414ruthbFSub 7 XVIII 474   2:06.6  172.6 
415Dave StenhouseMThe Banana Boat IX 470   2:07.7  168.2 
416Cerys ToombsfThe Banana Boat VI 469   2:07.9  167.2 
417Heather PowellfSub 7 XVIII 467   2:08.5  165.0 
418Rhonda Bishop S7FSub 7 XIX 465   2:09.0  162.9 
419Gaynor JohnsonFSub 7 XX 463   2:09.6  160.8 
420Louise CowanfThe Banana Boat VII 462   2:09.9  159.8 
421Caroline JoynsonfEmpty the Tanks II 459   2:10.7  156.7 
422ianahmSub 7 XIX 457   2:11.3  154.7 
423Sara LochrieFSub 7 XX 454   2:12.2  151.6 
424Olivia PotterfThe Banana Boat VIII 451   2:13.0  148.6 
425Arran McleanmThe Banana Boat IX 448   2:13.9  145.7 
426Dillion BartlettmThe Banana Boat IX 448   2:13.9  145.7 
427Jo HilstonfForum Flyers VI 444   2:15.1  141.8 
428Annis BessleyfThe Banana Boat IX 444   2:15.1  141.8 
429Billy FlintmThe Banana Boat IX 444   2:15.1  141.8 
430Antoine.nathaliefFIRT X 442   2:15.7  139.9 
431FREELANCE MN COMOLA ANNAFROWING CLUB MANTOVA II 440   2:16.4  138.0 
432Owen GodboldmThe Banana Boat X 438   2:17.0  136.2 
433Lacorne.coralinefFIRT XI 438   2:17.0  136.2 
434thomas fidjiefFIRT XII 437   2:17.3  135.2 
435Amy GoddardfThe Banana Boat X 437   2:17.3  135.2 
436Charles MorleyMSub 7 XX 435   2:17.9  133.4 
437Ellie HallfThe Banana Boat X 433   2:18.6  131.5 
438Charlie QuickfallmThe Banana Boat X 432   2:18.9  130.6 
439Marie HaigFGee Crew III 432   2:18.9  130.6 
440Klemen H. 2003mC2TweetCrew III 431   2:19.2  129.7 
441martine GASTALDIfFIRT XII 429   2:19.9  127.9 
442Reece TinmurthmThe Banana Boat X 426   2:20.8  125.3 
443Eileen CashfThe Banana Boat XI 425   2:21.2  124.4 
444Tony WebsterMThe Banana Boat XI 422   2:22.2  121.8 
445Phoenician juliefPhoenician Rowers I 419   2:23.2  119.2 
446Gillian BurrellfFree Spirits VI 414   2:24.9  115.0 
447Jean GilmoreFForum Flyers VII 413   2:25.3  114.1 
448Kate SpriggsfThe Banana Boat XI 410   2:26.3  111.7 
449battestini jonathanmFIRT XII 410   2:26.3  111.7 
450Sandra HaighFThe Banana Boat XI 409   2:26.7  110.9 
451Billy BoothmThe Banana Boat XI 409   2:26.7  110.9 
452thomas ameliefFIRT XII 406   2:27.8  108.4 
453Hannah StanleyfThe Banana Boat XII 403   2:28.9  106.1 
454Lewis HarrisonmThe Banana Boat XII 403   2:28.9  106.1 
455Amber GashfThe Banana Boat XII 401   2:29.6  104.5 
456jean curranfEmpty the Tanks III 399   2:30.4  102.9 
457Mollie BullockfThe Banana Boat XII 399   2:30.4  102.9 
458Josh TungatemThe Banana Boat XII 394   2:32.3  99.1 
459Arran BennettmThe Banana Boat XIII 391   2:33.5  96.9 
460mjpermuthfAge Without Limits I 390   2:33.8  96.1 
461Megan CommonfThe Banana Boat XIII 389   2:34.2  95.4 
462Brandon GuymThe Banana Boat XIII 386   2:35.4  93.2 
463John PriceBmThe Banana Boat XIII 380   2:37.9  88.9 
464Adam CoopermThe Banana Boat XIII 369   2:42.6  81.4 
465mathis F - "shark"mFIRT XII 365   2:44.4  78.8 
466Isaac StannardmThe Banana Boat XIV 361   2:46.2  76.2 
467Phoenician HannafPhoenician Rowers II 355   2:49.0  72.5 
468Luke ProctormThe Banana Boat XIV 355   2:49.0  72.5 
469Amie BennettfThe Banana Boat XIV 350   2:51.4  69.5 
470Saxon BakermForum Flyers VIII 349   2:51.9  68.9 
471Abbie WorrellfThe Banana Boat XIV 349   2:51.9  68.9 
472Tamsin BurnsfThe Banana Boat XIV 345   2:53.9  66.5 
473Keiren BennettmThe Banana Boat XV 336   2:58.6  61.5 
474Goolaerts.marieFFIRT XIII 329   3:02.4  57.7 
475Emmie BakerfForum Flyers VIII 327   3:03.5  56.7 
476Alex WhalemForum Flyers VIII 318   3:08.7  52.1 
477thomas fanniefFIRT XIII 312   3:12.3  49.2 
478romane FfFIRT XIII 263   3:48.1  29.5 
479Nylah "Bean" BakerfForum Flyers VIII 203   4:55.6  13.6 
480AnielkafEmpty the Tanks IV 197   5:04.6  12.4 
481Hazel WhalefForum Flyers VIII 136   7:21.2  4.1 
1
86 pts
Paddy Power I 686.6m
1 Ross Love (H)
Morgan Guthner (H)
PP Lee Bawn (H)
Paul_Timmons (L)
Amanda Grap (F)
2
85 pts
Sub 7 I 677.2m
Matt Vanstone (H)
Brett Steels (H)
Dan Stanley (H)
Andy Hammond (L)
Victoria Jane Taylor (F)
3
84 pts
Sub 7 II 666.2m
Julian Warrick (H)
Ollie Cartwright (H)
Ian Wilde (H)
David Byrnes (L)
Kristi Stoddard (F)
4
83 pts
Forum Flyers I 664.8m
Dirk Möller (H)
macroth (H)
Shawn Baker (H)
Nick Mallory (L)
Maryanne Maguire (F)
5
82 pts
FIRT I 657.4m
R2C2 (H)
MBOY-AIP (H)
David LIOT (H)
Luis (L)
Tara (F)
6
81 pts
Paddy Power II 655.8m
AAPaul Buchanan (H)
Maximus (H)
Martin Kjeldsen (H)
AARobert diffley (L)
Heather K Kenton (F)
7
80 pts
Sub 7 III 655.2m
Scott Pollock (H)
Stewart Moss (H)
Casey Clarke (H)
Alastair Peake (L)
Tracy Watkins (F)
8
79 pts
MAD I 649.8m
Dave Marshall (H)
Pete Marston (H)
Jon Goodall (H)
Steve Price (L)
Rachel Harris (F)
9
78 pts
Sub 7 IV 649.4m
Steve Sidaway (H)
Johnny Kolster (H)
Glynn Powell (H)
Danny Watson (L)
Sarita Kristina Hansen (F)
10
77 pts
Free Spirits I 642.2m
haaico (H)
thornmaster (H)
Mikkel Ellesøe Hansen (H)
John Steventon (L)
Laura Fairbairn (F)
11
76 pts
Forum Flyers II 639.4m
hjs (H)
JHilston (H)
Todd Carpenter (H)
Glen Rhook (L)
Georgina Price (F)
12
75 pts
Sub 7 V 638.6m
Jonty Leese (H)
Robert Jones (H)
James Campbell (H)
Marc Charman (L)
Kerri Christensen (F)
13
74 pts
FIRT II 632.8m
Julien ADAN (H)
Gaël SAGON (H)
Vivien Marmelat (H)
Sebastien Prieux (L)
Emma Lemoine (F)
14
73 pts
Sub 7 VI 632.2m
Richard Cheeseman (H)
Mark Lysons (H)
Ben Whitaker (H)
Turbo (L)
Laura Natalie Poulson (F)
15
72 pts
Penobscot River IRC I 629.6m
James Hildebrand (H)
Colin Vidas (H)
John Haney (H)
Chase Guerrette (L)
Jillian Ingerson (F)
16
71 pts
Sub 7 VII 628.2m
Johan Denekamp (H)
Rowland Hills (H)
Stuart Stronach (H)
John Eales (L)
Jet Ski Lady (F)
17
70 pts
Fitness Matters I 627.4m
Howard Brammer (H)
Dafydd james (H)
Sam Blythe (H)
Mike KM Beard (L)
Jo Walters (F)
18
69 pts
C2TweetCrew I 625.4m
Ralf Achenbach (H)
Kay Bieri (H)
Charles Anderson (H)
Herman de Boer (L)
Malwina Tritt (F)
19
68 pts
Free Spirits II 624.6m
danfennell (H)
Liefcat (H)
Paul Victory (H)
SanderJRoosendaal (L)
Claire Haynes (F)
20
67 pts
Tribesports I 624.2m
Mike Channin (Tribesports) (H)
Brenan (H)
Ben M (H)
Alan Strang (TS) (L)
Victoria Starr (F)
21
66 pts
FIRT III 622.4m
Collautti andre (H)
Pierre LGM (H)
Adam Fred (H)
david FROC (L)
chloe41 USV (F)
22
65 pts
Forum Flyers III 619.6m
Mark Christie (H)
Frank Noorlander (H)
MarkM FF (H)
Steve Burke (L)
Kathy Schofield (F)
23
64 pts
Paddy Power III 616.6m
MichaelBenham (H)
Maurice O'Kane (H)
Richard Moorehead (H)
Colin O'Neill (L)
Jessikahuny (F)
24
63 pts
Sub 7 VIII 615.4m
Bert Dol (H)
Josh Bennett (H)
TimDAV8 (H)
bojam (L)
Bluebell31 (F)
25
62 pts
RowPro Rowers I 614.8m
James Hyde (H)
Frank Nowakowski (H)
Amadee Pelgrim (H)
Pier Nijenhuis (L)
France Bergeron (F)
26
61 pts
FIRT IV 613.4m
JEFF JANEAU (H)
KCHAB-AIP (H)
philou71 (H)
Jean-Pierre GORIN (L)
Laurence LOPEZ (F)
27
60 pts
Empty the Tanks I 612.4m
Pongi (H)
Mark Bower (H)
Galeere (H)
Bill_Schmidt (L)
Karyn McNamara (F)
28
59 pts
Gee Crew I 611.6m
Mimimoke (H)
Simon Newton (H)
Rouge (H)
Jenna Paull (L)
Natalie Trebilcock (F)
29
58 pts
Team Oarsome I 609.8m
Al Taylor (H)
Dave Chmilowskyj (H)
Dave Speed (H)
Arlene Wade (TO) (L)
Hannah Hawkins (F)
30
57 pts
DLC Gidea Park I 609.6m
Robert Mayes (H)
Steve Jennings (H)
Deniz Mahmut (H)
Stuart Power (L)
Claire Milne (F)
31
56 pts
FIRT V 606.2m
NT-AIP (H)
Pierrick Moscatello (H)
Florian Cousin (H)
Looping (L)
Defondaumiere.stephanie (F)
32
55 pts
Forum Flyers IV 605.6m
Lindsayh (H)
W de Jong (H)
Steve Ockerby (H)
Will Haskell (L)
lizh FF (F)
33
54 pts
Sub 7 IX 603.8m
Rob Tarn (H)
Anthony Doherty (H)
Steven Richie (H)
Carlos Rodriguez (L)
Carol Woodward (F)
34
53 pts
Penobscot River IRC II 602m
Nat Breece (H)
Nick Verrow (H)
2444 Rob Smiff (H)
Claire Trembley (L)
Caitlin elliott (F)
35
52 pts
The Banana Boat I 600.8m
Matty Spriggs (H)
Bailey Hemsley (H)
Daniel Gulsher (H)
Little Chris (L)
Joanna Dlugoszewska (F)
36
51 pts
FIRT VI 599.8m
Aurelien USV (H)
patrick TERGEMINA (H)
PICHENOT Sylvain (H)
herve pruneau (L)
Nadine Coudroy (F)
37
50 pts
Free Spirits III 595.2m
Felton Humble (H)
gregsmith01748 (H)
Steve Smith (H)
RGelissen (L)
Michelle Houghton (F)
38
49 pts
Sub 7 X 594.2m
Shane Denver (H)
Richard Steventon (H)
Ant Stansbie (H)
Nigel Brockton (L)
Julie Paillin (F)
39
48 pts
Sub 7 XI 591.2m
Mark Collins S7 (H)
Rod Chinn (H)
bakudaina1 (H)
Steve Berridge (L)
Chloe Sharpe (F)
40
47 pts
Free Spirits IV 587.6m
alan wisniewski (H)
Ben Langstraat (H)
Dan Apps (H)
David Plumb (L)
clareburrell (F)
41
46 pts
FIRT VII 587.4m
laurent GALLO (H)
Sebastien Chaumiole (H)
stephane blanquart (H)
Mercier (L)
Elise Chaumiole II (F)
42
45 pts
DLC Gidea Park II 585.2m
Graham Holmes (H)
Alan Lack (H)
Philip Sadler (H)
Dave Brinsmead (L)
Lindsay Hewitt (F)
43
44 pts
C2TweetCrew II 585m
Markus Dorn (H)
Dirk_Veuger (H)
Jos van der linden (H)
Johan Hoeke (L)
Michelle Toy (F)
44
43 pts
Forum Flyers V 583.6m
Odd Ivar Lindland (H)
Nigel Farmer (H)
Chris Whale (H)
Terry FF (L)
Jas FF (F)
45
42 pts
Sub 7 XII 583.2m
Charles Bradley (H)
Liam Welbeck (H)
schuey (H)
Lawrence Del (L)
Susan Young (F)
46
41 pts
The Banana Boat II 577.2m
Funkyrower (H)
Alex Jenson (H)
Lewis Widowery (L)
Matt NichollsB (L)
Chole Hutson (F)
47
40 pts
Sub 7 XIII 577m
John McCarthy (H)
GeorgeBingham (H)
Andy Osborn (H)
Godfrey Tarling (L)
Deborah Abbott (F)
48
39 pts
RowPro Rowers II 572.4m
Doug Rolland (H)
Ruud Jackel (H)
Stefan Reschke (H)
Bill Wakeley (L)
Dee Amon (F)
49
38 pts
Phoenician Rowers I 572m
Phoenician Franki (H)
Phoenician Titi (H)
Phoenician David (H)
Phoenician Samy (L)
Phoenician julie (F)
50
37 pts
Empty the Tanks II 571.8m
Andrew Hewitt (H)
Joseph Smyntek (H)
Bouke Dieleman (H)
Daniel Sundqvist (L)
Caroline Joynson (F)
51
36 pts
FIRT VIII 571.4m
Jerome Coudroy (H)
Jeanditpanel.sebastien (H)
Gaetan Lys (H)
thomas jean philippe (L)
DERYA (F)
52
35 pts
Paddy Power IV 569.4m
Troy M (H)
Jay OB (H)
Joe A Keating (L)
Jerry G (L)
Lucy OB (F)
53
34 pts
Sub 7 XIV 568.4m
Dave Barber (H)
Dave Mikoska (H)
Volkert Wagenar (H)
Richard Hall (L)
Amanda Gurley (F)
54
33 pts
Free Spirits V 566.2m
Richard Y (H)
Peter Weiß (H)
Jon P Taylor (L)
Kirbyt (L)
PeggyH (F)
55
32 pts
Sub 7 XV 565.8m
henrik_denmark (H)
Eric Jones (H)
andy warner (H)
Kevin Finch (L)
diana kornbrot (F)
56
31 pts
FIRT IX 564.6m
patrice CORNUT (H)
Remy Coubel (H)
vincent Adema (H)
David SAGON (L)
Jego.nadine (F)
57
30 pts
ROWING CLUB MANTOVA I 563.2m
FREELANCE MN ROCCO GIORGIO (H)
FREELANCE MN BUOLI ROMANO (H)
FREELANCE MN UVA EMANUELE (H)
FREELANCE MN NASI PIERGIORGIO (L)
FREELANCE MN SPEGGIORIN ORNELLA (F)
58
29 pts
Sub 7 XVI 560.4m
Roger Bjarm Fornebo (H)
Paul Corrigan S7 (H)
Graham Lochrie (H)
Jono Baker (L)
Ellen Greenaway-Bowen (F)
59
28 pts
Tribesports II 554.2m
Smithy (H)
Damian Baker (H)
Paul Bryson (TS) (H)
Loretta Attey (L)
Lizzie M (F)
60
27 pts
Penobscot River IRC III 554.2m
Peter Vigneault (H)
Kendra Look (L)
Rozlyn Petersen (F)
Anna Phillips (F)
Emily Batchelder (F)
61
26 pts
The Banana Boat III 552m
Josh Gibbs (H)
Frank Tapp (H)
Lawrence Durkin (L)
Daniel Hames (L)
Melissa B (F)
62
25 pts
Sub 7 XVII 552m
James Thornton (H)
Cedi Frederick S7 (H)
Andy Grimmett (H)
Bryan Tapsell (L)
Liz West (F)
63
24 pts
Forum Flyers VI 544.8m
Peter FF (H)
Dave Moores (FF) (H)
Jaden FF (L)
Peter Sheean (L)
Jo Hilston (F)
64
23 pts
Gee Crew II 542.8m
Tom Haig (H)
Roger Cruttenden (H)
Kevin Pappin (H)
Ellie Mares (L)
Christina Hicks2 (F)
65
22 pts
The Banana Boat IV 538.6m
John Gunn (H)
Dave Barnbrook (H)
Alex Karton (L)
Michal Wuicimski (L)
Krist Chaplin (F)
66
21 pts
Sub 7 XVIII 537.8m
Matt Gibson (H)
Simon Lake (H)
cycloid (H)
Heather Powell (L)
ruthb (F)
67
20 pts
Free Spirits VI 536m
Phil Lamb (H)
Phil Nolan FS (H)
Rob C (H)
Peter Tullett (L)
Gillian Burrell (F)
68
19 pts
FIRT X 533.6m
Jean michel Coupe (H)
Villeneuve rene (H)
Houssin jean-michel (L)
Lehuger christian (L)
Antoine.nathalie (F)
69
18 pts
Paddy Power V 529.2m
Robert Essex (L)
Tinaosullivan (F)
Rhona Ware /O brien (F)
Carol Mcilvane (F)
Sue Marks (F)
70
17 pts
The Banana Boat V 528m
Alan Dixon (H)
Cody Button (L)
Sam Kershaw (L)
Scott Denney (L)
Dannika Wells (F)
71
16 pts
Empty the Tanks III 520m
Mike Bode (H)
Kenneth Murdoch (H)
Mark Kaehler (H)
Rob Drury (L)
jean curran (F)
72
15 pts
The Banana Boat VI 517.4m
Craig Revell (H)
Julian Spriggs (H)
Andrew Hill (L)
Jack Mills (L)
Cerys Toombs (F)
73
14 pts
Forum Flyers VII 514m
James FF (H)
Jack Gilmore (H)
brendanh FF (H)
Rick Bayko (L)
Jean Gilmore (F)
74
13 pts
Sub 7 XIX 511.4m
Richard Campos (H)
Mike Del (H)
Dougie Lawson (H)
ianah (L)
Rhonda Bishop S7 (F)
75
12 pts
FIRT XI 507.6m
Ronan LE LIGEOUR (H)
Sala.thomas (H)
Blanchard.michel (H)
Lestrade Th. (L)
Lacorne.coraline (F)
76
11 pts
The Banana Boat VII 496.8m
Keir Clasper (H)
Harry Goodwin (L)
Marcin Maliszewski (L)
Josh Whiteley (L)
Louise Cowan (F)
77
10 pts
The Banana Boat VIII 478.8m
Clive Hodds (H)
Adrian Hall (H)
Tom Sellars (L)
Sarah Downing (L)
Olivia Potter (F)
78
9 pts
The Banana Boat IX 450.8m
Dave Stenhouse (H)
Arran Mclean (L)
Dillion Bartlett (L)
Billy Flint (L)
Annis Bessley (F)
79
8 pts
Empty the Tanks IV 447.8m
Jonathan Turns ETT (H)
Jim Moldenhauer (H)
Matthias Rausch (H)
Diggy (L)
Anielka (F)
80
7 pts
The Banana Boat X 433.2m
Owen Godbold (L)
Charlie Quickfall (L)
Reece Tinmurth (L)
Ellie Hall (L)
Amy Goddard (F)
81
6 pts
The Banana Boat XI 415m
Tony Webster (H)
Billy Booth (L)
Eileen Cash (L)
Kate Spriggs (F)
Sandra Haigh (F)
82
5 pts
FIRT XII 409.4m
battestini jonathan (L)
mathis F - "shark" (L)
thomas fidjie (L)
thomas amelie (L)
martine GASTALDI (F)
83
4 pts
The Banana Boat XII 400m
Lewis Harrison (L)
Josh Tungate (L)
Amber Gash (L)
Mollie Bullock (L)
Hannah Stanley (F)
84
3 pts
The Banana Boat XIII 383m
Arran Bennett (L)
Brandon Guy (L)
John PriceB (L)
Adam Cooper (L)
Megan Common (F)
85
2 pts
The Banana Boat XIV 352m
Isaac Stannard (L)
Luke Proctor (L)
Abbie Worrell (L)
Tamsin Burns (L)
Amie Bennett (F)
86
1 pt
Forum Flyers VIII 266.6m
Saxon Baker (L)
Alex Whale (L)
Nylah "Bean" Baker (L)
Hazel Whale (L)
Emmie Baker (F)
87Rote 87 RK I626.3m
Johan Eklund (H)
D Wiklander (H)
Conny J. (L)
 
88Fitness Matters II608.2m
Anders Nielsen (H)
John Lugg (H)
George White (H)
2Sophie Cooke (L)
89DLC Gidea Park III584.7m
John Price (H)
Richie Fallows (H)
P McNeil (H)
Mike Brownjohn (L)
90Independent I581.7m
Craig Hudson (H)
James Hicks (H)
Oranj (L)
Jackie Hicks (F)
91Fitness Matters III580.5m
Mark Dickinson (H)
Graham Tooth (H)
 
92DLC Gidea Park IV552m
Richard Courtney (L)
 
93Team Oarsome II551m
George King (H)
Kay Hughes (F)
 
94Penobscot River IRC IV534m
Paul Dowsett (H)
Gabrielle Schrage (F)
 
95Free Spirits VII532.7m
Richard Lindner (H)
Jonathan Victory (H)
Jon Palin (L)
Roger Burrell (L)
96C2TweetCrew III529.5m
William Gooner Hawkins (H)
Martyn Smith (H)
Borut Hafner (L)
Klemen H. 2003 (L)
97Tribesports III526.5m
Stefan R (H)
Andy Tripp (H)
 
98IRON OARSMAN I514m
Mark Dickson (H)
 
99Age Without Limits I512m
Jean-Marc Hurni (H)
NC Stanley (H)
mjpermuth (L)
 
100Empty the Tanks V499m
Steve Coles (H)
 
101ROWING CLUB MANTOVA II486.5m
FREELANCE MN GRASSI MARCELLO (H)
FREELANCE MN COMOLA ANNA (F)
 
102Gee Crew III486.5m
Tommy Gee (H)
Marie Haig (F)
 
103RowPro Rowers III485m
Annette Wammen (L)
 
104Sub 7 XX458.5m
Chet Cressman (H)
Charles Morley (H)
Gaynor Johnson (F)
Sara Lochrie (F)
105Phoenician Rowers II355m
Phoenician Hanna (L)
 
106The Banana Boat XV336m
Keiren Bennett (L)
 
107FIRT XIII301.3m
thomas fannie (L)
romane F (L)
Goolaerts.marie (F)
 

The Cross-Team Challenge is not supported or endorsed by Concept 2.
Site written by Daren Chandisingh. Please post any problems on the UK Concept 2 forum.

Valid XHTML 1.0 Transitional